Burpee, Atlee
United StatesManBorn 19572014 – 2021Runner id 600499
Events
45
2014 – 2021
Best pace
9.504
km/h · 2017
Best finish
6th
of 88 · 2019
Distance raced
5,859
km · splits not double-counted
Pace over time
km/h · higher is faster
Pace over time: 45 races from 2014 to 2021, ranging from 2.28 to 11.73 kilometres per hour, where higher is faster. A second, age-graded series is drawn above it; the gap between the two is the age credit.
- Actual pace
- Age-graded pace
Results
| Date | Event | Distance | Result | Pace km/h | Placing |
|---|---|---|---|---|---|
| 2014-07-19 | 24h | 132.239 km | 5.510 | 26/140 | |
| 2014-10-19 | 50mi | 10:32:27 h | 7.634 | 43/53 | |
| 2015-05-17 | Dirty German Endurance Fest 50 MileUnited States | 50mi | 10:44:54 h | 7.486 | 41/66 |
| 2015-05-23 | Sole Challenge 24 Hour RunUnited States | 24h | 121.993 km | 5.083 | 5/17 |
| 2015-07-18 | Lone Ranger 24 hr Urban UltraUnited States | 24h | 136.150 km | 5.673 | 16/128 |
| 2015-09-12 | 100mi | 24:56:03 h | 6.454 | 23/41 | |
| 2016-01-02 | 100mi | 25:30:06 h | 6.311 | 34/78 | |
| 2016-03-06 | 40mi | 8:04:04 h | 7.979 | 47/99 | |
| 2016-04-02 | 100mi | 25:37:35 h | 6.280 | 90/156 | |
| 2016-05-28 | 24h | 54.765 km | 2.282 | 24/24 | |
| 2016-09-10 | 100mi | 22:41:31 h | 7.092 | 7/22 | |
| 2016-10-02 | 50km | 5:34:43 h | 8.963 | 79/308 | |
| 2016-11-12 | 50mi | 10:15:29 h | 7.844 | 102/332 | |
| 2017-03-04 | 40mi | 7:51:26 h | 8.193 | 35/83 | |
| 2017-04-01 | 50mi | 11:15:11 h | 7.151 | 34/103 | |
| 2017-04-22 | 50km | 5:15:39 h | 9.504 | 15/31 | |
| 2017-05-13 | Dirty German Endurance Fest 50 kmUnited States | 50km | 5:46:24 h | 8.661 | 33/153 |
| 2017-06-03 | 50mi | 11:59:43 h | 6.708 | 95/164 | |
| 2017-09-08 | Run Woodstock - 100 Mile Hallucination RunUnited States | 100mi | 27:23:05 h | 5.877 | 58/91 |
| 2017-11-11 | 100mi | 24:28:04 h | 6.577 | 86/180 | |
| 2018-04-08 | 100mi | 28:58:51 h | 5.553 | 93/114 | |
| 2018-11-10 | 50mi | 10:50:23 h | 7.423 | 152/421 | |
| 2018-12-31 | 24h | 109.435 km | 4.560 | 3/18 | |
| 2019-01-26 | 24h | 120.700 km | 5.029 | 8/53 | |
| 2019-03-08 | 47h | 161.658 km | 3.440 | 25/50 | |
| 2019-07-20 | Vermont 100 Mile Endurance RaceUnited States | 100mi | 28:16:58 h | 5.690 | 99/156 |
| 2019-08-03 | 100mi | 23:45:14 h | 6.775 | 6/88 | |
| 2019-10-27 | 50km | 5:17:10 h | 9.459 | 287/1329 | |
| 2019-11-09 | 100mi | 29:06:25 h | 5.529 | 211/225 | |
| 2020-02-08 | Tarawera 100 Mile Endurance RunNew Zealand | 100mi | 34:45:53 h | 4.629 | 177/199 |
| 2020-03-06 | 47h | 201.248 km | 4.282 | 8/78 | |
| 2020-07-11 | 100mi | 23:17:03 h | 6.912 | 36/97 | |
| 2020-07-25 | 24h | 115.711 km | 4.821 | 8/38 | |
| 2020-08-22 | 102mi | 28:20:18 h | 5.793 | 59/84 | |
| 2020-09-12 | 100mi | 26:48:24 h | 6.004 | 30/54 | |
| 2020-10-09 | 125mi | 36:29:56 h | 5.512 | 6/8 | |
| 2020-10-31 | Mohican Trail 100 MileUnited States | 100mi | 29:26:41 h | 5.466 | 46/82 |
| 2020-12-05 | 100mi | 23:28:00 h | 6.858 | 26/74 | |
| 2020-12-31 | 24h | 161.079 km | 6.712 | 8/27 | |
| 2021-05-10 | 6d | 389.461 km | 2.705 | 27/46 | |
| 2021-07-24 | 100mi | 29:32:14 h | 5.449 | 146/170 | |
| 2021-09-05 | 12h | 80.467 km | 6.706 | 30/184 | |
| 2021-09-17 | 100mi | 36:04:58 h | 4.460 | 134/156 | |
| 2021-11-06 | Mountain Masochist 50 Mile Trail RunUnited States | 50mi | 13:11:53 h | 6.097 | 129/131 |
| 2021-11-13 | 50mi | 11:39:12 h | 6.905 | 193/368 |